createdAt,value
2022-10-31T00:01:24.656Z,18.87
2022-10-31T00:03:51.703Z,20.33
2022-10-31T00:06:19.578Z,18.73
2022-10-31T00:09:05.044Z,17.40
2022-10-31T00:11:32.447Z,17.30
2022-10-31T00:14:00.434Z,17.90
2022-10-31T00:16:29.463Z,17.20
2022-10-31T00:19:00.422Z,19.57
2022-10-31T00:21:28.582Z,17.60
2022-10-31T00:23:55.694Z,19.97
2022-10-31T00:26:22.712Z,18.43
2022-10-31T00:28:50.638Z,18.27
2022-10-31T00:31:18.163Z,18.73
2022-10-31T00:33:45.771Z,19.60
2022-10-31T00:36:19.766Z,22.10
2022-10-31T00:38:48.435Z,22.77
2022-10-31T00:41:18.578Z,24.70
2022-10-31T00:43:45.623Z,23.63
2022-10-31T00:46:14.288Z,22.63
2022-10-31T00:48:41.250Z,25.70
2022-10-31T00:51:09.192Z,26.17
2022-10-31T00:53:36.325Z,25.47
2022-10-31T00:56:04.659Z,27.83
2022-10-31T00:58:31.674Z,25.83
2022-10-31T01:00:58.970Z,24.80
2022-10-31T01:03:30.104Z,25.20
2022-10-31T01:06:09.448Z,25.20
2022-10-31T01:08:38.172Z,27.37
2022-10-31T01:11:09.026Z,26.07
2022-10-31T01:13:36.993Z,28.40
2022-10-31T01:16:06.888Z,29.20
2022-10-31T01:18:35.052Z,27.70
2022-10-31T01:21:13.408Z,29.23
2022-10-31T01:23:41.546Z,32.10
2022-10-31T01:26:15.387Z,31.57
2022-10-31T01:28:51.735Z,27.57
2022-10-31T01:31:22.289Z,27.87
2022-10-31T01:33:49.747Z,28.17
2022-10-31T01:36:30.067Z,25.87
2022-10-31T01:39:07.103Z,27.37
2022-10-31T01:41:40.010Z,27.83
2022-10-31T01:44:16.054Z,27.03
2022-10-31T01:46:51.524Z,28.40
2022-10-31T01:49:25.713Z,25.87
2022-10-31T01:52:00.868Z,28.47
2022-10-31T01:54:35.728Z,28.03
2022-10-31T01:57:06.663Z,26.30
2022-10-31T01:59:40.908Z,26.00
2022-10-31T02:02:08.609Z,27.03
2022-10-31T02:04:36.820Z,25.43
2022-10-31T02:07:10.582Z,25.70
2022-10-31T02:09:39.188Z,25.47
2022-10-31T02:12:08.056Z,25.50
2022-10-31T02:14:36.569Z,24.67
2022-10-31T02:17:03.494Z,25.07
2022-10-31T02:20:09.927Z,24.63
2022-10-31T02:23:04.496Z,22.80
2022-10-31T02:25:37.173Z,24.07
2022-10-31T02:28:31.133Z,22.40
2022-10-31T02:31:37.039Z,24.30
2022-10-31T02:34:22.309Z,23.97
2022-10-31T02:36:59.703Z,23.90
2022-10-31T02:39:54.453Z,22.60
2022-10-31T02:42:44.893Z,24.13
2022-10-31T02:45:29.970Z,26.27
2022-10-31T02:48:03.732Z,21.80
2022-10-31T02:50:36.760Z,22.00
2022-10-31T02:53:04.660Z,22.70
2022-10-31T02:55:31.488Z,23.33
2022-10-31T02:58:06.036Z,23.50
2022-10-31T03:00:53.116Z,21.50
2022-10-31T03:04:12.098Z,24.07
2022-10-31T03:07:12.894Z,21.70
2022-10-31T03:10:15.598Z,23.67
2022-10-31T03:12:58.214Z,22.50
2022-10-31T03:15:34.693Z,22.57
2022-10-31T03:18:11.804Z,26.57
2022-10-31T03:20:43.757Z,22.73
2022-10-31T03:23:16.668Z,24.83
2022-10-31T03:25:45.233Z,24.20
2022-10-31T03:28:17.077Z,23.40
2022-10-31T03:30:46.588Z,22.87
2022-10-31T03:33:20.091Z,23.07
2022-10-31T03:35:49.729Z,23.10
2022-10-31T03:38:17.290Z,20.80
2022-10-31T03:40:47.759Z,22.17
2022-10-31T03:45:49.823Z,21.10
2022-10-31T03:48:19.984Z,21.53
2022-10-31T03:50:57.208Z,20.50
2022-10-31T03:53:36.428Z,20.80
2022-10-31T03:56:36.731Z,20.20
2022-10-31T03:59:18.579Z,22.70
2022-10-31T04:01:53.390Z,20.33
2022-10-31T04:04:21.611Z,22.07
2022-10-31T04:06:50.558Z,23.30
2022-10-31T04:09:19.696Z,23.37
2022-10-31T04:11:55.205Z,22.07
2022-10-31T04:14:26.775Z,23.00
2022-10-31T04:16:54.422Z,24.53
2022-10-31T04:19:21.419Z,22.60
2022-10-31T04:21:48.378Z,23.47
2022-10-31T04:24:15.425Z,22.70
2022-10-31T04:26:42.349Z,23.40
2022-10-31T04:29:09.323Z,23.53
2022-10-31T04:31:36.288Z,21.70
2022-10-31T04:34:03.286Z,22.70
2022-10-31T04:36:30.254Z,22.50
2022-10-31T04:38:57.190Z,22.13
2022-10-31T04:41:24.165Z,22.97
2022-10-31T04:43:51.264Z,21.97
2022-10-31T04:46:18.149Z,21.67
2022-10-31T04:48:45.336Z,20.83
2022-10-31T04:51:12.893Z,22.87
2022-10-31T04:53:39.884Z,21.63
2022-10-31T04:56:07.388Z,22.17
2022-10-31T04:58:34.414Z,21.30
2022-10-31T05:01:01.472Z,22.60
2022-10-31T05:03:28.503Z,21.50
2022-10-31T05:05:55.528Z,22.37
2022-10-31T05:08:22.478Z,20.23
2022-10-31T05:10:49.470Z,17.50
2022-10-31T05:13:16.679Z,17.97
2022-10-31T05:15:43.789Z,18.80
2022-10-31T05:18:10.820Z,18.50
2022-10-31T05:20:37.928Z,20.03
2022-10-31T05:23:04.888Z,19.30
2022-10-31T05:25:31.828Z,19.13
2022-10-31T05:27:59.378Z,19.20
2022-10-31T05:30:31.863Z,20.30
2022-10-31T05:32:59.378Z,19.87
2022-10-31T05:35:33.052Z,19.93
2022-10-31T05:38:01.012Z,22.13
2022-10-31T05:40:29.378Z,17.50
2022-10-31T05:43:00.135Z,18.07
2022-10-31T05:45:27.486Z,15.97
2022-10-31T05:48:01.319Z,18.63
2022-10-31T05:50:32.818Z,17.80
2022-10-31T05:53:04.008Z,16.70
2022-10-31T05:55:32.170Z,17.50
2022-10-31T05:58:00.086Z,17.33
2022-10-31T06:00:28.765Z,17.67
2022-10-31T06:03:04.788Z,16.20
2022-10-31T06:05:32.338Z,16.03
2022-10-31T06:08:00.678Z,17.03
2022-10-31T06:10:29.497Z,14.20
2022-10-31T06:12:56.511Z,15.60
2022-10-31T06:15:24.831Z,16.57
2022-10-31T06:18:04.465Z,16.83
2022-10-31T06:20:32.207Z,16.13
2022-10-31T06:22:59.662Z,16.57
2022-10-31T06:25:27.609Z,18.47
2022-10-31T06:27:55.098Z,16.50
2022-10-31T06:30:22.280Z,14.40
2022-10-31T06:32:50.635Z,15.80
2022-10-31T06:35:18.687Z,14.87
2022-10-31T06:37:53.838Z,17.07
2022-10-31T06:40:20.818Z,16.70
2022-10-31T06:42:47.861Z,16.47
2022-10-31T06:45:14.973Z,16.73
2022-10-31T06:48:03.826Z,14.73
2022-10-31T06:50:28.783Z,15.23
2022-10-31T06:52:58.153Z,16.93
2022-10-31T06:55:27.285Z,15.13
2022-10-31T06:57:58.876Z,16.07
2022-10-31T07:00:31.062Z,14.70
2022-10-31T07:03:08.483Z,14.27
2022-10-31T07:05:35.527Z,16.40
2022-10-31T07:08:08.210Z,15.07
2022-10-31T07:10:40.364Z,18.00
2022-10-31T07:13:13.857Z,16.90
2022-10-31T07:15:43.595Z,17.00
2022-10-31T07:18:13.634Z,17.27
2022-10-31T07:20:40.681Z,16.80
2022-10-31T07:23:08.883Z,17.20
2022-10-31T07:25:35.814Z,17.07
2022-10-31T07:28:02.960Z,16.37
2022-10-31T07:30:30.263Z,16.97
2022-10-31T07:32:57.488Z,15.87
2022-10-31T07:35:28.175Z,16.60
2022-10-31T07:37:56.169Z,17.97
2022-10-31T07:40:24.799Z,17.90
2022-10-31T07:42:53.793Z,17.33
2022-10-31T07:45:22.138Z,17.90
2022-10-31T07:47:52.798Z,17.00
2022-10-31T07:50:29.250Z,17.00
2022-10-31T07:53:04.104Z,16.30
2022-10-31T07:55:31.933Z,18.40
2022-10-31T07:58:26.272Z,18.30
2022-10-31T08:00:53.371Z,16.83
2022-10-31T08:03:21.142Z,16.37
2022-10-31T08:05:48.514Z,16.30
2022-10-31T08:08:17.375Z,14.73
2022-10-31T08:10:44.687Z,14.47
2022-10-31T08:13:14.794Z,17.50
2022-10-31T08:15:43.378Z,17.70
2022-10-31T08:18:14.854Z,15.33
2022-10-31T08:20:45.519Z,16.37
2022-10-31T08:23:14.548Z,15.20
2022-10-31T08:25:43.366Z,14.00
2022-10-31T08:28:12.637Z,14.87
2022-10-31T08:30:40.749Z,13.80
2022-10-31T08:33:16.687Z,13.20
2022-10-31T08:35:44.843Z,14.17
2022-10-31T08:38:14.149Z,15.93
2022-10-31T08:40:41.565Z,14.40
2022-10-31T08:43:13.794Z,15.70
2022-10-31T08:45:41.295Z,13.17
2022-10-31T08:48:15.638Z,13.67
2022-10-31T08:50:44.329Z,13.17
2022-10-31T08:53:20.810Z,13.57
2022-10-31T08:55:48.410Z,12.00
2022-10-31T08:58:18.890Z,12.00
2022-10-31T09:00:49.590Z,11.97
2022-10-31T09:03:24.239Z,12.93
2022-10-31T09:05:52.564Z,13.77
2022-10-31T09:08:19.589Z,12.87
2022-10-31T09:10:47.083Z,13.30
2022-10-31T09:13:21.055Z,14.47
2022-10-31T09:15:51.190Z,14.30
2022-10-31T09:18:23.512Z,15.30
2022-10-31T09:20:51.606Z,12.03
2022-10-31T09:23:21.727Z,13.60
2022-10-31T09:25:51.807Z,15.70
2022-10-31T09:28:24.280Z,16.70
2022-10-31T09:30:53.607Z,15.53
2022-10-31T09:33:21.924Z,15.17
2022-10-31T09:35:48.996Z,17.70
2022-10-31T09:38:20.420Z,16.53
2022-10-31T09:41:08.016Z,14.87
2022-10-31T09:44:02.466Z,17.20
2022-10-31T09:46:48.237Z,16.27
2022-10-31T09:49:46.279Z,16.97
2022-10-31T09:52:32.607Z,15.70
2022-10-31T09:55:08.059Z,19.70
2022-10-31T09:57:37.791Z,17.23
2022-10-31T10:00:17.038Z,17.30
2022-10-31T10:03:11.638Z,17.20
2022-10-31T10:05:47.177Z,15.67
2022-10-31T10:08:21.980Z,16.20
2022-10-31T10:11:07.288Z,15.90
2022-10-31T10:14:15.708Z,15.90
2022-10-31T10:17:03.650Z,18.40
2022-10-31T10:20:07.019Z,18.20
2022-10-31T10:23:21.709Z,16.27
2022-10-31T10:25:59.232Z,17.77
2022-10-31T10:28:39.511Z,20.30
2022-10-31T10:31:17.436Z,17.17
2022-10-31T10:34:03.556Z,19.13
2022-10-31T10:36:45.298Z,20.10
2022-10-31T10:39:48.669Z,20.10
2022-10-31T10:42:35.838Z,20.83
2022-10-31T10:45:36.790Z,19.70
2022-10-31T10:48:23.898Z,19.97
2022-10-31T10:50:52.833Z,19.40
2022-10-31T10:53:50.259Z,19.27
2022-10-31T10:56:29.045Z,17.57
2022-10-31T10:58:57.365Z,18.47
2022-10-31T11:01:24.655Z,20.10
2022-10-31T11:03:52.506Z,19.27
2022-10-31T11:06:27.264Z,18.90
2022-10-31T11:08:54.868Z,20.40
2022-10-31T11:11:31.809Z,17.87
2022-10-31T11:14:06.153Z,19.57
2022-10-31T11:16:45.134Z,18.37
2022-10-31T11:19:28.794Z,19.90
2022-10-31T11:22:07.501Z,19.73
2022-10-31T11:24:41.700Z,19.67
2022-10-31T11:27:23.524Z,20.60
2022-10-31T11:29:56.804Z,21.53
2022-10-31T11:32:29.483Z,22.13
2022-10-31T11:35:02.096Z,22.67
2022-10-31T11:37:38.680Z,21.87
2022-10-31T11:40:08.510Z,23.33
2022-10-31T11:42:42.609Z,22.60
2022-10-31T11:45:32.059Z,22.80
2022-10-31T11:48:02.394Z,21.03
2022-10-31T11:50:41.687Z,23.93
2022-10-31T11:53:36.175Z,23.50
2022-10-31T11:56:15.936Z,21.57
2022-10-31T11:58:43.789Z,22.70
2022-10-31T12:01:33.695Z,21.73
2022-10-31T12:04:14.415Z,22.60
2022-10-31T12:06:44.377Z,21.70
2022-10-31T12:09:29.039Z,22.77
2022-10-31T12:12:52.153Z,22.40
2022-10-31T12:15:32.032Z,22.60
2022-10-31T12:18:16.295Z,24.17
2022-10-31T12:21:02.623Z,23.90
2022-10-31T12:23:47.476Z,25.13
2022-10-31T12:26:54.872Z,24.03
2022-10-31T12:29:34.586Z,25.27
2022-10-31T12:32:32.085Z,23.97
2022-10-31T12:35:05.361Z,24.90
2022-10-31T12:37:41.631Z,24.80
2022-10-31T12:40:29.894Z,26.40
2022-10-31T12:43:17.942Z,27.07
2022-10-31T12:45:58.166Z,27.27
2022-10-31T12:48:55.543Z,23.37
2022-10-31T12:51:42.718Z,26.47
2022-10-31T12:54:18.294Z,25.80
2022-10-31T12:56:56.964Z,26.83
2022-10-31T12:59:37.284Z,26.10
2022-10-31T13:02:22.599Z,27.57
2022-10-31T13:05:06.122Z,26.07
2022-10-31T13:07:49.702Z,24.67
2022-10-31T13:10:31.621Z,25.80
2022-10-31T13:13:21.609Z,27.93
2022-10-31T13:16:02.273Z,26.20
2022-10-31T13:18:36.566Z,25.37
2022-10-31T13:21:14.425Z,29.03
2022-10-31T13:23:51.096Z,27.60
2022-10-31T13:26:49.494Z,28.60
2022-10-31T13:29:42.912Z,29.03
2022-10-31T13:32:11.814Z,28.37
2022-10-31T13:34:56.243Z,29.33
2022-10-31T13:37:39.378Z,29.23
2022-10-31T13:40:35.448Z,32.10
2022-10-31T13:43:33.493Z,29.50
2022-10-31T13:46:00.424Z,29.20
2022-10-31T13:48:34.981Z,31.30
2022-10-31T13:51:08.750Z,29.47
2022-10-31T13:54:20.345Z,32.17
2022-10-31T13:56:54.175Z,28.23
2022-10-31T13:59:25.436Z,30.93
2022-10-31T14:02:03.197Z,30.20
2022-10-31T14:07:23.890Z,30.30
2022-10-31T14:10:08.565Z,31.10
2022-10-31T14:12:40.324Z,30.57
2022-10-31T14:15:27.577Z,28.80
2022-10-31T14:18:00.388Z,29.07
2022-10-31T14:20:44.636Z,28.13
2022-10-31T14:23:36.987Z,31.13
2022-10-31T14:26:29.487Z,31.30
2022-10-31T14:29:15.785Z,31.13
2022-10-31T14:31:47.443Z,30.20
2022-10-31T14:34:28.217Z,30.40
2022-10-31T14:37:28.472Z,31.37
2022-10-31T14:40:26.492Z,31.20
2022-10-31T14:43:23.504Z,31.60
2022-10-31T14:46:16.982Z,33.10
2022-10-31T14:49:00.511Z,29.43
2022-10-31T14:51:45.411Z,33.63
2022-10-31T14:54:36.742Z,31.57
2022-10-31T14:57:42.633Z,33.57
2022-10-31T15:00:17.873Z,34.10
2022-10-31T15:02:47.632Z,33.10
2022-10-31T15:05:15.112Z,36.67
2022-10-31T15:07:59.570Z,33.53
2022-10-31T15:10:33.258Z,33.17
2022-10-31T15:13:32.842Z,32.80
2022-10-31T15:16:00.384Z,34.23
2022-10-31T15:18:29.917Z,33.10
2022-10-31T15:20:58.252Z,33.93
2022-10-31T15:23:30.552Z,34.77
2022-10-31T15:26:06.207Z,42.67
2022-10-31T15:28:33.497Z,33.87
2022-10-31T15:31:04.176Z,36.60
2022-10-31T15:33:43.927Z,33.73
2022-10-31T15:36:27.728Z,37.97
2022-10-31T15:38:58.932Z,34.87
2022-10-31T15:41:40.134Z,36.50
2022-10-31T15:44:24.222Z,36.50
2022-10-31T15:47:04.658Z,34.60
2022-10-31T15:49:37.777Z,33.37
2022-10-31T15:52:48.723Z,34.90
2022-10-31T15:55:17.198Z,34.90
2022-10-31T15:57:47.629Z,43.27
2022-10-31T16:00:36.447Z,46.30
2022-10-31T16:03:29.535Z,36.43
2022-10-31T16:06:00.569Z,38.93
2022-10-31T16:08:30.163Z,40.07
2022-10-31T16:11:15.537Z,43.17
2022-10-31T16:13:53.077Z,45.87
2022-10-31T16:16:34.541Z,43.53
2022-10-31T16:19:06.073Z,43.30
2022-10-31T16:21:38.406Z,40.77
2022-10-31T16:24:32.327Z,41.57
2022-10-31T16:27:08.137Z,38.57
2022-10-31T16:29:44.647Z,42.30
2022-10-31T16:32:54.619Z,44.33
2022-10-31T16:35:39.181Z,43.40
2022-10-31T16:38:06.903Z,44.67
2022-10-31T16:40:34.176Z,42.73
2022-10-31T16:43:02.481Z,44.47
2022-10-31T16:45:33.278Z,45.10
2022-10-31T16:48:13.412Z,45.40
2022-10-31T16:50:40.344Z,46.50
2022-10-31T16:53:14.009Z,46.03
2022-10-31T16:56:03.933Z,48.47
2022-10-31T16:58:36.630Z,47.47
2022-10-31T17:01:07.440Z,46.57
2022-10-31T17:03:34.870Z,46.40
2022-10-31T17:06:01.885Z,49.10
2022-10-31T17:08:28.828Z,47.80
2022-10-31T17:10:58.012Z,48.70
2022-10-31T17:13:29.248Z,47.73
2022-10-31T17:15:59.982Z,48.17
2022-10-31T17:18:28.120Z,47.53
2022-10-31T17:21:02.041Z,51.10
2022-10-31T17:23:30.086Z,53.00
2022-10-31T17:25:57.779Z,52.57
2022-10-31T17:28:26.858Z,48.43
2022-10-31T17:30:56.318Z,52.57
2022-10-31T17:33:23.197Z,52.83
2022-10-31T17:35:50.720Z,53.43
2022-10-31T17:38:17.677Z,48.17
2022-10-31T17:40:45.312Z,52.17
2022-10-31T17:43:12.878Z,173.60
2022-10-31T17:45:41.876Z,95.20
2022-10-31T17:48:12.675Z,80.50
2022-10-31T17:50:39.880Z,59.70
2022-10-31T17:53:06.853Z,53.57
2022-10-31T17:55:36.245Z,57.37
2022-10-31T17:58:05.429Z,57.70
2022-10-31T18:00:32.658Z,56.43
2022-10-31T18:03:00.197Z,52.17
2022-10-31T18:05:27.395Z,51.50
2022-10-31T18:07:55.750Z,52.00
2022-10-31T18:10:23.594Z,50.30
2022-10-31T18:12:50.504Z,48.37
2022-10-31T18:15:18.458Z,47.07
2022-10-31T18:17:46.708Z,47.80
2022-10-31T18:20:14.058Z,49.70
2022-10-31T18:22:40.948Z,49.13
2022-10-31T18:25:09.211Z,44.83
2022-10-31T18:27:36.138Z,44.93
2022-10-31T18:30:03.868Z,44.80
2022-10-31T18:32:30.825Z,44.67
2022-10-31T18:34:57.807Z,43.67
2022-10-31T18:37:24.725Z,42.00
2022-10-31T18:39:51.727Z,39.47
2022-10-31T18:42:18.656Z,36.67
2022-10-31T18:44:45.585Z,38.37
2022-10-31T18:47:12.629Z,39.60
2022-10-31T18:49:39.690Z,38.37
2022-10-31T18:52:06.687Z,38.17
2022-10-31T18:54:33.632Z,34.70
2022-10-31T18:57:00.619Z,36.00
2022-10-31T18:59:27.633Z,35.00
2022-10-31T19:01:54.621Z,33.97
2022-10-31T19:04:21.782Z,34.90
2022-10-31T19:06:48.743Z,33.73
2022-10-31T19:09:15.730Z,32.70
2022-10-31T19:11:42.760Z,30.33
2022-10-31T19:14:13.729Z,29.33
2022-10-31T19:16:41.482Z,27.33
2022-10-31T19:19:10.092Z,25.83
2022-10-31T19:21:37.042Z,22.80
2022-10-31T19:24:04.651Z,25.40
2022-10-31T19:26:34.482Z,26.23
2022-10-31T19:29:01.481Z,26.10
2022-10-31T19:31:29.033Z,25.70
2022-10-31T19:33:56.168Z,27.60
2022-10-31T19:36:24.413Z,24.03
2022-10-31T19:38:53.314Z,21.00
2022-10-31T19:41:25.114Z,20.90
2022-10-31T19:43:53.537Z,19.13
2022-10-31T19:46:47.835Z,19.77
2022-10-31T19:49:12.021Z,19.23
2022-10-31T19:51:38.979Z,19.50
2022-10-31T19:54:06.442Z,21.40
2022-10-31T19:56:33.814Z,20.27
2022-10-31T19:59:00.840Z,21.13
2022-10-31T20:01:28.222Z,18.70
2022-10-31T20:03:55.278Z,17.60
2022-10-31T20:06:29.782Z,16.73
2022-10-31T20:08:57.560Z,16.80
2022-10-31T20:11:27.643Z,15.70
2022-10-31T20:14:00.861Z,17.20
2022-10-31T20:16:28.695Z,16.43
2022-10-31T20:18:56.375Z,15.80
2022-10-31T20:21:30.158Z,17.93
2022-10-31T20:24:03.993Z,15.30
2022-10-31T20:26:33.048Z,15.40
2022-10-31T20:29:01.954Z,15.40
2022-10-31T20:31:36.038Z,15.70
2022-10-31T20:34:03.792Z,14.50
2022-10-31T20:36:31.172Z,16.30
2022-10-31T20:39:00.500Z,17.20
2022-10-31T20:41:27.530Z,15.40
2022-10-31T20:43:55.185Z,15.30
2022-10-31T20:46:26.357Z,16.07
2022-10-31T20:48:54.492Z,16.90
2022-10-31T20:51:28.748Z,16.93
2022-10-31T20:53:58.080Z,16.73
2022-10-31T20:56:28.412Z,17.10
2022-10-31T20:58:56.950Z,16.37
2022-10-31T21:01:30.857Z,18.80
2022-10-31T21:03:59.103Z,16.53
2022-10-31T21:06:27.198Z,15.20
2022-10-31T21:08:54.891Z,16.07
2022-10-31T21:11:25.315Z,16.80
2022-10-31T21:13:53.433Z,15.17
2022-10-31T21:16:31.472Z,18.37
2022-10-31T21:19:01.130Z,14.33
2022-10-31T21:21:32.847Z,17.40
2022-10-31T21:24:07.296Z,15.33
2022-10-31T21:26:39.306Z,16.00
2022-10-31T21:29:07.672Z,15.23
2022-10-31T21:31:36.992Z,16.67
2022-10-31T21:34:04.457Z,16.17
2022-10-31T21:36:32.001Z,15.63
2022-10-31T21:38:58.977Z,14.20
2022-10-31T21:41:28.809Z,15.60
2022-10-31T21:43:56.018Z,15.13
2022-10-31T21:46:29.827Z,14.70
2022-10-31T21:48:57.469Z,16.87
2022-10-31T21:51:34.706Z,18.67
2022-10-31T21:54:21.575Z,17.17
2022-10-31T21:56:48.732Z,17.80
2022-10-31T21:59:15.820Z,16.40
2022-10-31T22:01:42.903Z,16.80
2022-10-31T22:04:10.532Z,19.33
2022-10-31T22:06:38.249Z,17.07
2022-10-31T22:09:08.662Z,17.80
2022-10-31T22:11:36.011Z,16.07
2022-10-31T22:14:04.213Z,18.03
2022-10-31T22:16:36.570Z,17.23
2022-10-31T22:19:06.578Z,17.63
2022-10-31T22:21:44.798Z,18.73
2022-10-31T22:24:12.386Z,19.43
2022-10-31T22:26:40.343Z,18.07
2022-10-31T22:29:13.172Z,16.43
2022-10-31T22:31:44.233Z,18.53
2022-10-31T22:34:13.307Z,19.10
2022-10-31T22:36:41.182Z,18.43
2022-10-31T22:39:09.817Z,17.20
2022-10-31T22:41:37.273Z,17.50
2022-10-31T22:44:05.547Z,16.07
2022-10-31T22:46:37.110Z,16.10
2022-10-31T22:49:10.014Z,19.67
2022-10-31T22:51:39.602Z,16.90
2022-10-31T22:54:12.812Z,17.53
2022-10-31T22:56:40.002Z,16.33
2022-10-31T22:59:07.084Z,17.50
2022-10-31T23:01:34.845Z,17.27
2022-10-31T23:04:02.751Z,16.60
2022-10-31T23:06:32.173Z,15.20
2022-10-31T23:09:05.259Z,15.80
2022-10-31T23:11:39.754Z,16.00
2022-10-31T23:14:16.566Z,16.27
2022-10-31T23:16:52.281Z,15.00
2022-10-31T23:19:29.206Z,15.60
2022-10-31T23:22:03.079Z,15.90
2022-10-31T23:24:32.932Z,14.67
2022-10-31T23:27:09.463Z,15.17
2022-10-31T23:29:49.527Z,14.33
2022-10-31T23:32:28.114Z,14.40
2022-10-31T23:35:01.010Z,17.00
2022-10-31T23:37:32.479Z,15.50
2022-10-31T23:39:59.997Z,16.80
2022-10-31T23:42:28.472Z,15.77
2022-10-31T23:44:56.479Z,17.13
2022-10-31T23:47:24.194Z,19.47
2022-10-31T23:49:51.361Z,18.90
2022-10-31T23:52:19.212Z,17.67
2022-10-31T23:54:46.214Z,18.40
2022-10-31T23:57:15.437Z,19.40
2022-10-31T23:59:43.036Z,17.43
